sensor_id;sensor_type;location;lat;lon;timestamp;P1;durP1;ratioP1;P2;durP2;ratioP2
5710;SDS011;61291;52.524;13.422;2023-08-20T00:01:24;69.77;;;64.77;;
5710;SDS011;61291;52.524;13.422;2023-08-20T00:03:51;71.40;;;66.20;;
5710;SDS011;61291;52.524;13.422;2023-08-20T00:06:18;71.63;;;66.20;;
5710;SDS011;61291;52.524;13.422;2023-08-20T00:08:44;70.97;;;65.28;;
5710;SDS011;61291;52.524;13.422;2023-08-20T00:11:11;71.93;;;66.50;;
5710;SDS011;61291;52.524;13.422;2023-08-20T00:13:37;71.87;;;66.30;;
5710;SDS011;61291;52.524;13.422;2023-08-20T00:16:02;61.90;;;56.60;;
5710;SDS011;61291;52.524;13.422;2023-08-20T00:18:28;74.13;;;68.53;;
5710;SDS011;61291;52.524;13.422;2023-08-20T00:20:54;73.57;;;68.20;;
5710;SDS011;61291;52.524;13.422;2023-08-20T00:23:20;74.47;;;69.27;;
5710;SDS011;61291;52.524;13.422;2023-08-20T00:25:46;71.07;;;65.80;;
5710;SDS011;61291;52.524;13.422;2023-08-20T00:28:11;72.63;;;67.43;;
5710;SDS011;61291;52.524;13.422;2023-08-20T00:30:37;70.80;;;65.60;;
5710;SDS011;61291;52.524;13.422;2023-08-20T00:33:02;71.70;;;66.30;;
5710;SDS011;61291;52.524;13.422;2023-08-20T00:35:28;75.17;;;69.67;;
5710;SDS011;61291;52.524;13.422;2023-08-20T00:37:54;67.10;;;62.23;;
5710;SDS011;61291;52.524;13.422;2023-08-20T00:40:19;69.23;;;63.93;;
5710;SDS011;61291;52.524;13.422;2023-08-20T00:42:45;71.43;;;65.13;;
5710;SDS011;61291;52.524;13.422;2023-08-20T00:45:10;68.30;;;63.00;;
5710;SDS011;61291;52.524;13.422;2023-08-20T00:47:37;69.47;;;64.37;;
5710;SDS011;61291;52.524;13.422;2023-08-20T00:50:03;66.67;;;61.63;;
5710;SDS011;61291;52.524;13.422;2023-08-20T00:52:33;68.25;;;62.65;;
5710;SDS011;61291;52.524;13.422;2023-08-20T00:54:59;69.93;;;64.80;;
5710;SDS011;61291;52.524;13.422;2023-08-20T00:57:30;71.38;;;65.97;;
5710;SDS011;61291;52.524;13.422;2023-08-20T00:59:55;69.23;;;64.27;;
5710;SDS011;61291;52.524;13.422;2023-08-20T01:02:22;66.10;;;61.30;;
5710;SDS011;61291;52.524;13.422;2023-08-20T01:04:47;65.93;;;61.00;;
5710;SDS011;61291;52.524;13.422;2023-08-20T01:07:20;66.80;;;62.10;;
5710;SDS011;61291;52.524;13.422;2023-08-20T01:10:02;69.43;;;64.73;;
5710;SDS011;61291;52.524;13.422;2023-08-20T01:12:48;67.37;;;62.63;;
5710;SDS011;61291;52.524;13.422;2023-08-20T01:15:16;66.20;;;61.60;;
5710;SDS011;61291;52.524;13.422;2023-08-20T01:17:42;69.53;;;64.37;;
5710;SDS011;61291;52.524;13.422;2023-08-20T01:20:08;66.25;;;61.60;;
5710;SDS011;61291;52.524;13.422;2023-08-20T01:25:19;67.57;;;62.67;;
5710;SDS011;61291;52.524;13.422;2023-08-20T01:30:49;68.50;;;63.67;;
5710;SDS011;61291;52.524;13.422;2023-08-20T01:33:17;70.43;;;65.60;;
5710;SDS011;61291;52.524;13.422;2023-08-20T01:35:43;70.10;;;64.90;;
5710;SDS011;61291;52.524;13.422;2023-08-20T01:38:09;70.10;;;64.90;;
5710;SDS011;61291;52.524;13.422;2023-08-20T01:40:34;69.73;;;64.63;;
5710;SDS011;61291;52.524;13.422;2023-08-20T01:43:00;72.80;;;67.50;;
5710;SDS011;61291;52.524;13.422;2023-08-20T01:45:25;72.90;;;67.70;;
5710;SDS011;61291;52.524;13.422;2023-08-20T01:47:51;71.63;;;66.53;;
5710;SDS011;61291;52.524;13.422;2023-08-20T01:50:16;71.13;;;65.60;;
5710;SDS011;61291;52.524;13.422;2023-08-20T01:52:42;74.20;;;68.90;;
5710;SDS011;61291;52.524;13.422;2023-08-20T01:55:07;70.83;;;65.80;;
5710;SDS011;61291;52.524;13.422;2023-08-20T01:57:33;72.67;;;66.87;;
5710;SDS011;61291;52.524;13.422;2023-08-20T01:59:58;69.57;;;64.47;;
5710;SDS011;61291;52.524;13.422;2023-08-20T02:02:24;67.60;;;62.70;;
5710;SDS011;61291;52.524;13.422;2023-08-20T02:04:50;72.90;;;66.90;;
5710;SDS011;61291;52.524;13.422;2023-08-20T02:07:15;68.30;;;63.23;;
5710;SDS011;61291;52.524;13.422;2023-08-20T02:09:41;71.77;;;66.23;;
5710;SDS011;61291;52.524;13.422;2023-08-20T02:12:06;76.50;;;70.90;;
5710;SDS011;61291;52.524;13.422;2023-08-20T02:14:32;69.00;;;63.97;;
5710;SDS011;61291;52.524;13.422;2023-08-20T02:17:00;66.93;;;62.20;;
5710;SDS011;61291;52.524;13.422;2023-08-20T02:19:26;73.22;;;67.82;;
5710;SDS011;61291;52.524;13.422;2023-08-20T02:21:52;74.40;;;68.43;;
5710;SDS011;61291;52.524;13.422;2023-08-20T02:24:18;72.40;;;67.20;;
5710;SDS011;61291;52.524;13.422;2023-08-20T02:26:43;74.93;;;69.00;;
5710;SDS011;61291;52.524;13.422;2023-08-20T02:29:09;73.20;;;67.83;;
5710;SDS011;61291;52.524;13.422;2023-08-20T02:31:34;70.23;;;65.17;;
5710;SDS011;61291;52.524;13.422;2023-08-20T02:34:00;71.82;;;66.53;;
5710;SDS011;61291;52.524;13.422;2023-08-20T02:36:26;72.63;;;67.27;;
5710;SDS011;61291;52.524;13.422;2023-08-20T02:38:51;70.77;;;65.47;;
5710;SDS011;61291;52.524;13.422;2023-08-20T02:41:17;73.67;;;68.03;;
5710;SDS011;61291;52.524;13.422;2023-08-20T02:43:42;75.90;;;70.60;;
5710;SDS011;61291;52.524;13.422;2023-08-20T02:46:08;68.80;;;63.67;;
5710;SDS011;61291;52.524;13.422;2023-08-20T02:48:33;72.73;;;67.17;;
5710;SDS011;61291;52.524;13.422;2023-08-20T02:50:59;77.77;;;71.23;;
5710;SDS011;61291;52.524;13.422;2023-08-20T02:53:24;70.73;;;64.60;;
5710;SDS011;61291;52.524;13.422;2023-08-20T02:55:50;73.80;;;68.37;;
5710;SDS011;61291;52.524;13.422;2023-08-20T02:58:15;74.80;;;68.55;;
5710;SDS011;61291;52.524;13.422;2023-08-20T03:00:41;71.82;;;66.65;;
5710;SDS011;61291;52.524;13.422;2023-08-20T03:03:10;74.40;;;69.20;;
5710;SDS011;61291;52.524;13.422;2023-08-20T03:05:36;79.00;;;73.20;;
5710;SDS011;61291;52.524;13.422;2023-08-20T03:08:02;75.73;;;70.10;;
5710;SDS011;61291;52.524;13.422;2023-08-20T03:10:31;74.93;;;69.37;;
5710;SDS011;61291;52.524;13.422;2023-08-20T03:12:56;78.07;;;72.28;;
5710;SDS011;61291;52.524;13.422;2023-08-20T03:15:26;75.77;;;70.53;;
5710;SDS011;61291;52.524;13.422;2023-08-20T03:17:52;79.53;;;73.07;;
5710;SDS011;61291;52.524;13.422;2023-08-20T03:20:17;78.23;;;72.47;;
5710;SDS011;61291;52.524;13.422;2023-08-20T03:22:43;81.00;;;73.13;;
5710;SDS011;61291;52.524;13.422;2023-08-20T03:25:08;80.10;;;73.40;;
5710;SDS011;61291;52.524;13.422;2023-08-20T03:27:34;76.03;;;70.43;;
5710;SDS011;61291;52.524;13.422;2023-08-20T03:30:00;80.80;;;75.00;;
5710;SDS011;61291;52.524;13.422;2023-08-20T03:32:25;78.18;;;71.80;;
5710;SDS011;61291;52.524;13.422;2023-08-20T03:34:51;77.60;;;72.00;;
5710;SDS011;61291;52.524;13.422;2023-08-20T03:37:18;81.32;;;75.63;;
5710;SDS011;61291;52.524;13.422;2023-08-20T03:39:43;81.17;;;75.33;;
5710;SDS011;61291;52.524;13.422;2023-08-20T03:42:09;80.73;;;74.90;;
5710;SDS011;61291;52.524;13.422;2023-08-20T03:44:34;81.67;;;75.30;;
5710;SDS011;61291;52.524;13.422;2023-08-20T03:47:00;79.30;;;73.40;;
5710;SDS011;61291;52.524;13.422;2023-08-20T03:49:25;79.80;;;74.07;;
5710;SDS011;61291;52.524;13.422;2023-08-20T03:51:51;67.80;;;62.80;;
5710;SDS011;61291;52.524;13.422;2023-08-20T03:54:16;77.90;;;72.30;;
5710;SDS011;61291;52.524;13.422;2023-08-20T03:56:42;80.20;;;74.00;;
5710;SDS011;61291;52.524;13.422;2023-08-20T03:59:07;81.10;;;75.40;;
5710;SDS011;61291;52.524;13.422;2023-08-20T04:01:33;79.05;;;73.15;;
5710;SDS011;61291;52.524;13.422;2023-08-20T04:04:00;80.70;;;74.70;;
5710;SDS011;61291;52.524;13.422;2023-08-20T04:06:26;83.70;;;77.53;;
5710;SDS011;61291;52.524;13.422;2023-08-20T04:08:51;82.80;;;77.00;;
5710;SDS011;61291;52.524;13.422;2023-08-20T04:11:17;77.20;;;71.33;;
5710;SDS011;61291;52.524;13.422;2023-08-20T04:13:42;79.00;;;72.90;;
5710;SDS011;61291;52.524;13.422;2023-08-20T04:16:08;77.50;;;71.70;;
5710;SDS011;61291;52.524;13.422;2023-08-20T04:18:34;83.77;;;78.07;;
5710;SDS011;61291;52.524;13.422;2023-08-20T04:21:00;82.50;;;76.57;;
5710;SDS011;61291;52.524;13.422;2023-08-20T04:23:25;87.03;;;80.60;;
5710;SDS011;61291;52.524;13.422;2023-08-20T04:25:51;75.03;;;69.53;;
5710;SDS011;61291;52.524;13.422;2023-08-20T04:28:17;79.23;;;73.50;;
5710;SDS011;61291;52.524;13.422;2023-08-20T04:30:42;84.23;;;77.40;;
5710;SDS011;61291;52.524;13.422;2023-08-20T04:33:08;82.22;;;76.18;;
5710;SDS011;61291;52.524;13.422;2023-08-20T04:35:34;80.67;;;74.60;;
5710;SDS011;61291;52.524;13.422;2023-08-20T04:38:00;84.73;;;78.43;;
5710;SDS011;61291;52.524;13.422;2023-08-20T04:40:26;81.53;;;75.60;;
5710;SDS011;61291;52.524;13.422;2023-08-20T04:42:51;76.90;;;71.10;;
5710;SDS011;61291;52.524;13.422;2023-08-20T04:45:17;79.90;;;73.83;;
5710;SDS011;61291;52.524;13.422;2023-08-20T04:47:46;83.77;;;77.50;;
5710;SDS011;61291;52.524;13.422;2023-08-20T04:50:11;82.88;;;76.93;;
5710;SDS011;61291;52.524;13.422;2023-08-20T04:52:40;82.90;;;76.70;;
5710;SDS011;61291;52.524;13.422;2023-08-20T04:55:06;77.20;;;71.63;;
5710;SDS011;61291;52.524;13.422;2023-08-20T04:57:32;80.00;;;74.00;;
5710;SDS011;61291;52.524;13.422;2023-08-20T04:59:58;83.87;;;77.77;;
5710;SDS011;61291;52.524;13.422;2023-08-20T05:02:24;83.20;;;76.30;;
5710;SDS011;61291;52.524;13.422;2023-08-20T05:04:49;79.50;;;73.70;;
5710;SDS011;61291;52.524;13.422;2023-08-20T05:07:15;82.90;;;76.60;;
5710;SDS011;61291;52.524;13.422;2023-08-20T05:09:40;83.53;;;77.50;;
5710;SDS011;61291;52.524;13.422;2023-08-20T05:12:06;82.80;;;75.72;;
5710;SDS011;61291;52.524;13.422;2023-08-20T05:14:32;81.83;;;76.00;;
5710;SDS011;61291;52.524;13.422;2023-08-20T05:16:57;80.60;;;75.10;;
5710;SDS011;61291;52.524;13.422;2023-08-20T05:19:23;79.75;;;73.20;;
5710;SDS011;61291;52.524;13.422;2023-08-20T05:21:49;78.97;;;73.13;;
5710;SDS011;61291;52.524;13.422;2023-08-20T05:24:14;82.13;;;75.90;;
5710;SDS011;61291;52.524;13.422;2023-08-20T05:26:40;82.40;;;76.40;;
5710;SDS011;61291;52.524;13.422;2023-08-20T05:29:05;80.60;;;74.53;;
5710;SDS011;61291;52.524;13.422;2023-08-20T05:31:31;75.47;;;69.80;;
5710;SDS011;61291;52.524;13.422;2023-08-20T05:33:56;74.70;;;69.30;;
5710;SDS011;61291;52.524;13.422;2023-08-20T05:36:22;78.57;;;72.78;;
5710;SDS011;61291;52.524;13.422;2023-08-20T05:38:48;79.20;;;72.80;;
5710;SDS011;61291;52.524;13.422;2023-08-20T05:41:14;76.60;;;70.83;;
5710;SDS011;61291;52.524;13.422;2023-08-20T05:43:39;77.30;;;71.37;;
5710;SDS011;61291;52.524;13.422;2023-08-20T05:46:05;76.67;;;70.77;;
5710;SDS011;61291;52.524;13.422;2023-08-20T05:48:30;76.37;;;69.97;;
5710;SDS011;61291;52.524;13.422;2023-08-20T05:50:56;69.47;;;64.37;;
5710;SDS011;61291;52.524;13.422;2023-08-20T05:53:22;73.93;;;67.63;;
5710;SDS011;61291;52.524;13.422;2023-08-20T05:55:47;71.47;;;66.07;;
5710;SDS011;61291;52.524;13.422;2023-08-20T05:58:13;71.53;;;65.73;;
5710;SDS011;61291;52.524;13.422;2023-08-20T06:00:39;71.07;;;65.33;;
5710;SDS011;61291;52.524;13.422;2023-08-20T06:03:05;69.97;;;64.63;;
5710;SDS011;61291;52.524;13.422;2023-08-20T06:05:32;71.83;;;65.33;;
5710;SDS011;61291;52.524;13.422;2023-08-20T06:07:58;70.77;;;64.67;;
5710;SDS011;61291;52.524;13.422;2023-08-20T06:10:23;70.63;;;65.30;;
5710;SDS011;61291;52.524;13.422;2023-08-20T06:12:49;66.33;;;61.33;;
5710;SDS011;61291;52.524;13.422;2023-08-20T06:15:14;68.57;;;62.80;;
5710;SDS011;61291;52.524;13.422;2023-08-20T06:17:40;67.80;;;62.70;;
5710;SDS011;61291;52.524;13.422;2023-08-20T06:20:05;73.57;;;67.57;;
5710;SDS011;61291;52.524;13.422;2023-08-20T06:22:33;70.23;;;65.07;;
5710;SDS011;61291;52.524;13.422;2023-08-20T06:24:58;68.10;;;62.47;;
5710;SDS011;61291;52.524;13.422;2023-08-20T06:27:24;70.67;;;65.17;;
5710;SDS011;61291;52.524;13.422;2023-08-20T06:29:49;66.30;;;60.87;;
5710;SDS011;61291;52.524;13.422;2023-08-20T06:32:15;70.00;;;64.20;;
5710;SDS011;61291;52.524;13.422;2023-08-20T06:34:40;72.27;;;66.50;;
5710;SDS011;61291;52.524;13.422;2023-08-20T06:37:06;70.63;;;65.30;;
5710;SDS011;61291;52.524;13.422;2023-08-20T06:39:31;72.93;;;66.20;;
5710;SDS011;61291;52.524;13.422;2023-08-20T06:41:57;65.13;;;60.27;;
5710;SDS011;61291;52.524;13.422;2023-08-20T06:44:22;69.33;;;64.30;;
5710;SDS011;61291;52.524;13.422;2023-08-20T06:46:48;70.70;;;64.93;;
5710;SDS011;61291;52.524;13.422;2023-08-20T06:49:13;70.57;;;64.67;;
5710;SDS011;61291;52.524;13.422;2023-08-20T06:51:38;69.23;;;63.80;;
5710;SDS011;61291;52.524;13.422;2023-08-20T06:54:04;70.20;;;64.90;;
5710;SDS011;61291;52.524;13.422;2023-08-20T06:56:33;67.60;;;62.50;;
5710;SDS011;61291;52.524;13.422;2023-08-20T06:58:59;70.63;;;65.10;;
5710;SDS011;61291;52.524;13.422;2023-08-20T07:01:26;67.57;;;62.50;;
5710;SDS011;61291;52.524;13.422;2023-08-20T07:03:52;72.10;;;66.90;;
5710;SDS011;61291;52.524;13.422;2023-08-20T07:06:17;72.37;;;67.07;;
5710;SDS011;61291;52.524;13.422;2023-08-20T07:08:43;70.07;;;64.27;;
5710;SDS011;61291;52.524;13.422;2023-08-20T07:11:09;70.17;;;65.07;;
5710;SDS011;61291;52.524;13.422;2023-08-20T07:13:34;68.80;;;63.63;;
5710;SDS011;61291;52.524;13.422;2023-08-20T07:16:00;70.27;;;65.27;;
5710;SDS011;61291;52.524;13.422;2023-08-20T07:18:25;68.17;;;62.80;;
5710;SDS011;61291;52.524;13.422;2023-08-20T07:20:51;73.13;;;67.47;;
5710;SDS011;61291;52.524;13.422;2023-08-20T07:23:17;69.40;;;64.30;;
5710;SDS011;61291;52.524;13.422;2023-08-20T07:25:43;74.67;;;68.83;;
5710;SDS011;61291;52.524;13.422;2023-08-20T07:28:10;79.27;;;73.77;;
5710;SDS011;61291;52.524;13.422;2023-08-20T07:30:35;73.17;;;67.87;;
5710;SDS011;61291;52.524;13.422;2023-08-20T07:33:02;75.00;;;69.43;;
5710;SDS011;61291;52.524;13.422;2023-08-20T07:35:28;75.20;;;69.43;;
5710;SDS011;61291;52.524;13.422;2023-08-20T07:37:54;73.97;;;68.13;;
5710;SDS011;61291;52.524;13.422;2023-08-20T07:40:19;72.50;;;66.90;;
5710;SDS011;61291;52.524;13.422;2023-08-20T07:42:45;69.20;;;64.10;;
5710;SDS011;61291;52.524;13.422;2023-08-20T07:45:10;71.63;;;66.00;;
5710;SDS011;61291;52.524;13.422;2023-08-20T07:47:36;68.00;;;63.00;;
5710;SDS011;61291;52.524;13.422;2023-08-20T07:50:02;70.83;;;65.37;;
5710;SDS011;61291;52.524;13.422;2023-08-20T07:52:29;68.00;;;63.00;;
5710;SDS011;61291;52.524;13.422;2023-08-20T07:54:55;72.33;;;66.53;;
5710;SDS011;61291;52.524;13.422;2023-08-20T07:57:20;68.30;;;63.40;;
5710;SDS011;61291;52.524;13.422;2023-08-20T07:59:48;74.77;;;68.87;;
5710;SDS011;61291;52.524;13.422;2023-08-20T08:02:14;71.87;;;66.67;;
5710;SDS011;61291;52.524;13.422;2023-08-20T08:04:39;70.23;;;64.50;;
5710;SDS011;61291;52.524;13.422;2023-08-20T08:07:05;74.03;;;68.40;;
5710;SDS011;61291;52.524;13.422;2023-08-20T08:09:30;68.40;;;63.23;;
5710;SDS011;61291;52.524;13.422;2023-08-20T08:11:57;70.93;;;65.97;;
5710;SDS011;61291;52.524;13.422;2023-08-20T08:14:23;72.63;;;67.28;;
5710;SDS011;61291;52.524;13.422;2023-08-20T08:16:49;70.93;;;66.00;;
5710;SDS011;61291;52.524;13.422;2023-08-20T08:19:15;74.40;;;69.00;;
5710;SDS011;61291;52.524;13.422;2023-08-20T08:21:42;74.32;;;68.63;;
5710;SDS011;61291;52.524;13.422;2023-08-20T08:24:08;74.60;;;69.32;;
5710;SDS011;61291;52.524;13.422;2023-08-20T08:26:34;74.23;;;68.70;;
5710;SDS011;61291;52.524;13.422;2023-08-20T08:29:01;72.47;;;67.10;;
5710;SDS011;61291;52.524;13.422;2023-08-20T08:31:27;69.63;;;64.77;;
5710;SDS011;61291;52.524;13.422;2023-08-20T08:33:52;79.30;;;73.30;;
5710;SDS011;61291;52.524;13.422;2023-08-20T08:36:18;76.23;;;70.80;;
5710;SDS011;61291;52.524;13.422;2023-08-20T08:38:43;74.17;;;68.67;;
5710;SDS011;61291;52.524;13.422;2023-08-20T08:41:11;74.87;;;69.57;;
5710;SDS011;61291;52.524;13.422;2023-08-20T08:43:38;75.47;;;70.17;;
5710;SDS011;61291;52.524;13.422;2023-08-20T08:46:08;71.27;;;66.17;;
5710;SDS011;61291;52.524;13.422;2023-08-20T08:48:39;71.33;;;66.13;;
5710;SDS011;61291;52.524;13.422;2023-08-20T08:51:06;69.80;;;64.90;;
5710;SDS011;61291;52.524;13.422;2023-08-20T08:53:32;62.50;;;58.03;;
5710;SDS011;61291;52.524;13.422;2023-08-20T08:55:58;69.17;;;64.03;;
5710;SDS011;61291;52.524;13.422;2023-08-20T08:58:24;74.67;;;68.97;;
5710;SDS011;61291;52.524;13.422;2023-08-20T09:00:51;66.83;;;62.03;;
5710;SDS011;61291;52.524;13.422;2023-08-20T09:03:16;63.57;;;58.87;;
5710;SDS011;61291;52.524;13.422;2023-08-20T09:05:45;66.17;;;61.40;;
5710;SDS011;61291;52.524;13.422;2023-08-20T09:08:23;64.00;;;59.80;;
5710;SDS011;61291;52.524;13.422;2023-08-20T09:10:52;60.00;;;56.00;;
5710;SDS011;61291;52.524;13.422;2023-08-20T09:13:24;63.08;;;58.60;;
5710;SDS011;61291;52.524;13.422;2023-08-20T09:15:51;65.70;;;61.10;;
5710;SDS011;61291;52.524;13.422;2023-08-20T09:18:17;60.87;;;56.50;;
5710;SDS011;61291;52.524;13.422;2023-08-20T09:20:43;63.67;;;59.20;;
5710;SDS011;61291;52.524;13.422;2023-08-20T09:23:11;61.87;;;57.40;;
5710;SDS011;61291;52.524;13.422;2023-08-20T09:25:40;61.03;;;56.53;;
5710;SDS011;61291;52.524;13.422;2023-08-20T09:28:07;66.97;;;62.30;;
5710;SDS011;61291;52.524;13.422;2023-08-20T09:30:32;67.23;;;62.43;;
5710;SDS011;61291;52.524;13.422;2023-08-20T09:33:02;63.80;;;59.20;;
5710;SDS011;61291;52.524;13.422;2023-08-20T09:35:38;69.27;;;64.23;;
5710;SDS011;61291;52.524;13.422;2023-08-20T09:38:13;67.80;;;62.80;;
5710;SDS011;61291;52.524;13.422;2023-08-20T09:40:38;68.90;;;64.10;;
5710;SDS011;61291;52.524;13.422;2023-08-20T09:43:04;67.10;;;62.30;;
5710;SDS011;61291;52.524;13.422;2023-08-20T09:45:33;67.20;;;62.33;;
5710;SDS011;61291;52.524;13.422;2023-08-20T09:47:59;64.95;;;60.58;;
5710;SDS011;61291;52.524;13.422;2023-08-20T09:50:29;71.05;;;66.03;;
5710;SDS011;61291;52.524;13.422;2023-08-20T09:53:03;65.80;;;61.03;;
5710;SDS011;61291;52.524;13.422;2023-08-20T09:55:35;66.20;;;61.50;;
5710;SDS011;61291;52.524;13.422;2023-08-20T09:58:04;69.93;;;65.33;;
5710;SDS011;61291;52.524;13.422;2023-08-20T10:00:30;68.00;;;63.40;;
5710;SDS011;61291;52.524;13.422;2023-08-20T10:02:58;66.40;;;61.90;;
5710;SDS011;61291;52.524;13.422;2023-08-20T10:05:24;66.77;;;62.17;;
5710;SDS011;61291;52.524;13.422;2023-08-20T10:07:50;71.13;;;66.23;;
5710;SDS011;61291;52.524;13.422;2023-08-20T10:10:17;67.67;;;63.07;;
5710;SDS011;61291;52.524;13.422;2023-08-20T10:12:43;65.50;;;61.10;;
5710;SDS011;61291;52.524;13.422;2023-08-20T10:15:10;67.53;;;62.80;;
5710;SDS011;61291;52.524;13.422;2023-08-20T10:17:39;67.03;;;62.27;;
5710;SDS011;61291;52.524;13.422;2023-08-20T10:20:06;64.40;;;59.30;;
5710;SDS011;61291;52.524;13.422;2023-08-20T10:22:39;63.20;;;58.45;;
5710;SDS011;61291;52.524;13.422;2023-08-20T10:25:22;60.30;;;56.30;;
5710;SDS011;61291;52.524;13.422;2023-08-20T10:27:48;65.93;;;61.33;;
5710;SDS011;61291;52.524;13.422;2023-08-20T10:30:18;71.57;;;66.40;;
5710;SDS011;61291;52.524;13.422;2023-08-20T10:32:53;67.80;;;63.40;;
5710;SDS011;61291;52.524;13.422;2023-08-20T10:35:24;67.53;;;62.80;;
5710;SDS011;61291;52.524;13.422;2023-08-20T10:38:06;65.50;;;61.10;;
5710;SDS011;61291;52.524;13.422;2023-08-20T10:40:54;69.63;;;65.03;;
5710;SDS011;61291;52.524;13.422;2023-08-20T10:43:34;68.17;;;63.67;;
5710;SDS011;61291;52.524;13.422;2023-08-20T10:46:02;66.20;;;61.70;;
5710;SDS011;61291;52.524;13.422;2023-08-20T10:48:34;68.03;;;63.53;;
5710;SDS011;61291;52.524;13.422;2023-08-20T10:53:36;64.83;;;60.07;;
5710;SDS011;61291;52.524;13.422;2023-08-20T10:56:09;64.00;;;59.90;;
5710;SDS011;61291;52.524;13.422;2023-08-20T10:58:38;65.73;;;61.63;;
5710;SDS011;61291;52.524;13.422;2023-08-20T11:01:19;63.87;;;59.67;;
5710;SDS011;61291;52.524;13.422;2023-08-20T11:03:46;63.10;;;59.10;;
5710;SDS011;61291;52.524;13.422;2023-08-20T11:06:13;64.10;;;60.17;;
5710;SDS011;61291;52.524;13.422;2023-08-20T11:08:39;63.20;;;59.00;;
5710;SDS011;61291;52.524;13.422;2023-08-20T11:11:06;62.53;;;58.43;;
5710;SDS011;61291;52.524;13.422;2023-08-20T11:13:32;62.70;;;58.60;;
5710;SDS011;61291;52.524;13.422;2023-08-20T11:15:59;63.17;;;58.95;;
5710;SDS011;61291;52.524;13.422;2023-08-20T11:18:25;61.67;;;57.57;;
5710;SDS011;61291;52.524;13.422;2023-08-20T11:20:51;63.95;;;59.70;;
5710;SDS011;61291;52.524;13.422;2023-08-20T11:23:16;63.40;;;59.10;;
5710;SDS011;61291;52.524;13.422;2023-08-20T11:25:42;63.30;;;58.70;;
5710;SDS011;61291;52.524;13.422;2023-08-20T11:28:08;61.60;;;57.67;;
5710;SDS011;61291;52.524;13.422;2023-08-20T11:30:34;63.33;;;59.10;;
5710;SDS011;61291;52.524;13.422;2023-08-20T11:33:00;62.73;;;58.73;;
5710;SDS011;61291;52.524;13.422;2023-08-20T11:35:25;66.63;;;62.27;;
5710;SDS011;61291;52.524;13.422;2023-08-20T11:37:52;65.87;;;61.37;;
5710;SDS011;61291;52.524;13.422;2023-08-20T11:40:20;61.55;;;57.53;;
5710;SDS011;61291;52.524;13.422;2023-08-20T11:42:45;66.40;;;61.67;;
5710;SDS011;61291;52.524;13.422;2023-08-20T11:45:11;52.67;;;49.17;;
5710;SDS011;61291;52.524;13.422;2023-08-20T11:47:40;64.20;;;60.00;;
5710;SDS011;61291;52.524;13.422;2023-08-20T11:50:09;59.47;;;55.67;;
5710;SDS011;61291;52.524;13.422;2023-08-20T11:52:35;64.10;;;59.60;;
5710;SDS011;61291;52.524;13.422;2023-08-20T11:55:01;63.37;;;59.30;;
5710;SDS011;61291;52.524;13.422;2023-08-20T11:57:28;56.53;;;52.65;;
5710;SDS011;61291;52.524;13.422;2023-08-20T11:59:54;62.13;;;58.00;;
5710;SDS011;61291;52.524;13.422;2023-08-20T12:02:26;63.00;;;58.90;;
5710;SDS011;61291;52.524;13.422;2023-08-20T12:04:54;60.53;;;56.43;;
5710;SDS011;61291;52.524;13.422;2023-08-20T12:07:20;63.73;;;59.20;;
5710;SDS011;61291;52.524;13.422;2023-08-20T12:09:50;62.50;;;58.30;;
5710;SDS011;61291;52.524;13.422;2023-08-20T12:12:16;72.27;;;67.20;;
5710;SDS011;61291;52.524;13.422;2023-08-20T12:14:44;55.72;;;51.75;;
5710;SDS011;61291;52.524;13.422;2023-08-20T12:17:10;64.87;;;60.57;;
5710;SDS011;61291;52.524;13.422;2023-08-20T12:19:35;64.00;;;59.83;;
5710;SDS011;61291;52.524;13.422;2023-08-20T12:22:00;62.60;;;58.60;;
5710;SDS011;61291;52.524;13.422;2023-08-20T12:24:27;66.63;;;62.13;;
5710;SDS011;61291;52.524;13.422;2023-08-20T12:26:52;68.03;;;63.53;;
5710;SDS011;61291;52.524;13.422;2023-08-20T12:29:18;68.27;;;63.90;;
5710;SDS011;61291;52.524;13.422;2023-08-20T12:31:44;71.47;;;66.47;;
5710;SDS011;61291;52.524;13.422;2023-08-20T12:34:10;65.10;;;60.90;;
5710;SDS011;61291;52.524;13.422;2023-08-20T12:36:35;67.83;;;63.43;;
5710;SDS011;61291;52.524;13.422;2023-08-20T12:39:01;62.63;;;58.37;;
5710;SDS011;61291;52.524;13.422;2023-08-20T12:41:28;68.30;;;63.77;;
5710;SDS011;61291;52.524;13.422;2023-08-20T12:43:54;71.97;;;66.73;;
5710;SDS011;61291;52.524;13.422;2023-08-20T12:46:24;68.10;;;63.60;;
5710;SDS011;61291;52.524;13.422;2023-08-20T12:48:49;63.43;;;59.33;;
5710;SDS011;61291;52.524;13.422;2023-08-20T12:51:16;60.37;;;56.30;;
5710;SDS011;61291;52.524;13.422;2023-08-20T12:53:42;61.07;;;56.73;;
5710;SDS011;61291;52.524;13.422;2023-08-20T12:56:08;59.92;;;55.97;;
5710;SDS011;61291;52.524;13.422;2023-08-20T12:58:33;63.90;;;59.67;;
5710;SDS011;61291;52.524;13.422;2023-08-20T13:00:59;64.17;;;60.07;;
5710;SDS011;61291;52.524;13.422;2023-08-20T13:03:25;59.50;;;55.70;;
5710;SDS011;61291;52.524;13.422;2023-08-20T13:05:52;68.70;;;64.20;;
5710;SDS011;61291;52.524;13.422;2023-08-20T13:08:18;64.53;;;60.43;;
5710;SDS011;61291;52.524;13.422;2023-08-20T13:10:45;60.25;;;56.25;;
5710;SDS011;61291;52.524;13.422;2023-08-20T13:13:20;63.67;;;59.63;;
5710;SDS011;61291;52.524;13.422;2023-08-20T13:15:46;61.50;;;56.97;;
5710;SDS011;61291;52.524;13.422;2023-08-20T13:18:12;68.40;;;64.00;;
5710;SDS011;61291;52.524;13.422;2023-08-20T13:20:38;62.80;;;58.70;;
5710;SDS011;61291;52.524;13.422;2023-08-20T13:23:04;62.27;;;58.00;;
5710;SDS011;61291;52.524;13.422;2023-08-20T13:25:30;58.57;;;54.70;;
5710;SDS011;61291;52.524;13.422;2023-08-20T13:27:56;58.83;;;54.87;;
5710;SDS011;61291;52.524;13.422;2023-08-20T13:30:21;62.30;;;58.13;;
5710;SDS011;61291;52.524;13.422;2023-08-20T13:32:47;62.20;;;58.20;;
5710;SDS011;61291;52.524;13.422;2023-08-20T13:35:12;64.43;;;59.80;;
5710;SDS011;61291;52.524;13.422;2023-08-20T13:37:39;59.93;;;56.13;;
5710;SDS011;61291;52.524;13.422;2023-08-20T13:40:05;61.03;;;56.80;;
5710;SDS011;61291;52.524;13.422;2023-08-20T13:42:33;58.67;;;54.67;;
5710;SDS011;61291;52.524;13.422;2023-08-20T13:44:58;57.57;;;53.87;;
5710;SDS011;61291;52.524;13.422;2023-08-20T13:47:23;65.17;;;60.97;;
5710;SDS011;61291;52.524;13.422;2023-08-20T13:49:49;56.63;;;53.03;;
5710;SDS011;61291;52.524;13.422;2023-08-20T13:52:14;61.27;;;57.53;;
5710;SDS011;61291;52.524;13.422;2023-08-20T13:54:42;50.00;;;46.90;;
5710;SDS011;61291;52.524;13.422;2023-08-20T13:57:07;59.20;;;55.57;;
5710;SDS011;61291;52.524;13.422;2023-08-20T13:59:33;61.70;;;57.60;;
5710;SDS011;61291;52.524;13.422;2023-08-20T14:01:58;65.00;;;61.10;;
5710;SDS011;61291;52.524;13.422;2023-08-20T14:04:24;62.00;;;58.10;;
5710;SDS011;61291;52.524;13.422;2023-08-20T14:06:50;58.73;;;54.50;;
5710;SDS011;61291;52.524;13.422;2023-08-20T14:09:15;58.13;;;54.60;;
5710;SDS011;61291;52.524;13.422;2023-08-20T14:11:44;59.03;;;55.27;;
5710;SDS011;61291;52.524;13.422;2023-08-20T14:14:10;53.47;;;49.97;;
5710;SDS011;61291;52.524;13.422;2023-08-20T14:16:36;54.67;;;51.37;;
5710;SDS011;61291;52.524;13.422;2023-08-20T14:19:01;60.17;;;56.23;;
5710;SDS011;61291;52.524;13.422;2023-08-20T14:21:27;55.03;;;51.73;;
5710;SDS011;61291;52.524;13.422;2023-08-20T14:23:52;59.77;;;55.77;;
5710;SDS011;61291;52.524;13.422;2023-08-20T14:26:18;60.13;;;55.63;;